createdAt,value
2019-05-09T00:00:24.355Z,10.97
2019-05-09T00:02:17.372Z,10.94
2019-05-09T00:03:17.406Z,10.89
2019-05-09T00:05:10.391Z,10.96
2019-05-09T00:06:10.450Z,10.89
2019-05-09T00:08:03.661Z,10.87
2019-05-09T00:09:03.869Z,10.89
2019-05-09T00:10:56.470Z,10.87
2019-05-09T00:11:56.524Z,10.99
2019-05-09T00:13:49.522Z,10.93
2019-05-09T00:14:49.561Z,10.97
2019-05-09T00:16:43.897Z,10.89
2019-05-09T00:17:43.942Z,10.97
2019-05-09T00:19:35.577Z,10.96
2019-05-09T00:20:35.637Z,10.92
2019-05-09T00:22:28.693Z,10.89
2019-05-09T00:23:28.733Z,10.94
2019-05-09T00:25:23.603Z,10.97
2019-05-09T00:26:23.581Z,10.94
2019-05-09T00:28:14.780Z,10.89
2019-05-09T00:29:14.809Z,10.97
2019-05-09T00:31:07.805Z,10.96
2019-05-09T00:32:07.845Z,10.90
2019-05-09T00:34:00.849Z,10.94
2019-05-09T00:35:00.885Z,10.93
2019-05-09T00:36:54.068Z,11.00
2019-05-09T00:37:53.921Z,10.96
2019-05-09T00:39:46.924Z,10.94
2019-05-09T00:40:57.855Z,10.93
2019-05-09T00:42:39.929Z,10.97
2019-05-09T00:43:40.000Z,10.93
2019-05-09T00:45:33.411Z,10.84
2019-05-09T00:46:34.125Z,10.90
2019-05-09T00:48:26.036Z,10.81
2019-05-09T00:49:26.093Z,10.81
2019-05-09T00:51:19.092Z,10.82
2019-05-09T00:52:19.129Z,10.84
2019-05-09T00:54:13.531Z,10.86
2019-05-09T00:55:13.222Z,10.87
2019-05-09T00:57:05.167Z,10.84
2019-05-09T00:58:05.198Z,10.79
2019-05-09T00:59:58.181Z,10.79
2019-05-09T01:00:58.241Z,10.74
2019-05-09T01:02:51.239Z,10.74
2019-05-09T01:03:53.337Z,10.74
2019-05-09T01:05:47.346Z,10.74
2019-05-09T01:06:44.314Z,10.78
2019-05-09T01:08:37.314Z,10.78
2019-05-09T01:09:37.349Z,10.74
2019-05-09T01:11:30.348Z,10.72
2019-05-09T01:12:30.382Z,10.74
2019-05-09T01:14:23.659Z,10.75
2019-05-09T01:15:24.041Z,10.75
2019-05-09T01:17:16.410Z,10.79
2019-05-09T01:18:16.457Z,10.74
2019-05-09T01:20:09.462Z,10.84
2019-05-09T01:21:09.496Z,10.82
2019-05-09T01:23:03.502Z,10.81
2019-05-09T01:24:03.375Z,10.89
2019-05-09T01:25:55.511Z,10.86
2019-05-09T01:26:55.565Z,10.93
2019-05-09T01:28:48.565Z,10.94
2019-05-09T01:29:48.619Z,10.89
2019-05-09T01:31:43.630Z,10.78
2019-05-09T01:32:43.344Z,10.89
2019-05-09T01:34:34.646Z,10.81
2019-05-09T01:35:34.682Z,10.90
2019-05-09T01:37:27.663Z,10.84
2019-05-09T01:38:27.718Z,10.82
2019-05-09T01:40:20.719Z,10.86
2019-05-09T01:41:27.937Z,10.82
2019-05-09T01:43:13.990Z,10.86
2019-05-09T01:44:13.798Z,10.79
2019-05-09T01:46:06.801Z,10.87
2019-05-09T01:47:06.831Z,10.81
2019-05-09T01:48:59.819Z,10.86
2019-05-09T01:49:59.877Z,10.86
2019-05-09T01:51:53.673Z,10.79
2019-05-09T01:52:53.424Z,10.82
2019-05-09T01:54:45.889Z,10.72
2019-05-09T01:55:45.946Z,10.76
2019-05-09T01:57:38.946Z,10.75
2019-05-09T01:58:38.982Z,10.63
2019-05-09T02:00:33.182Z,10.68
2019-05-09T02:01:34.335Z,10.60
2019-05-09T02:03:25.030Z,10.57
2019-05-09T02:04:25.069Z,10.49
2019-05-09T02:06:18.047Z,10.35
2019-05-09T02:07:18.109Z,10.44
2019-05-09T02:09:11.101Z,10.46
2019-05-09T02:10:11.139Z,10.38
2019-05-09T02:12:04.339Z,10.33
2019-05-09T02:13:04.176Z,10.33
2019-05-09T02:14:57.171Z,10.34
2019-05-09T02:15:57.202Z,10.31
2019-05-09T02:18:01.135Z,10.33
2019-05-09T02:18:50.246Z,10.22
2019-05-09T02:20:43.868Z,10.19
2019-05-09T02:21:43.776Z,10.26
2019-05-09T02:23:36.275Z,10.15
2019-05-09T02:24:36.313Z,10.17
2019-05-09T02:26:29.298Z,10.17
2019-05-09T02:27:29.351Z,10.17
2019-05-09T02:29:23.188Z,10.28
2019-05-09T02:30:25.354Z,10.09
2019-05-09T02:32:15.369Z,10.09
2019-05-09T02:33:15.431Z,10.10
2019-05-09T02:35:08.428Z,10.09
2019-05-09T02:36:09.814Z,9.98
2019-05-09T02:38:01.446Z,9.98
2019-05-09T02:39:01.499Z,9.97
2019-05-09T02:40:54.507Z,9.99
2019-05-09T02:42:04.812Z,9.95
2019-05-09T02:43:49.618Z,9.82
2019-05-09T02:44:49.314Z,9.92
2019-05-09T02:46:40.584Z,9.74
2019-05-09T02:47:40.629Z,9.72
2019-05-09T02:49:33.602Z,9.72
2019-05-09T02:50:33.661Z,9.69
2019-05-09T02:52:28.693Z,9.68
2019-05-09T02:53:28.852Z,9.69
2019-05-09T02:55:19.672Z,9.69
2019-05-09T02:56:19.727Z,9.65
2019-05-09T02:58:12.724Z,9.64
2019-05-09T02:59:12.761Z,9.54
2019-05-09T03:01:08.309Z,9.54
2019-05-09T03:02:09.197Z,9.50
2019-05-09T03:03:59.070Z,9.51
2019-05-09T03:04:58.856Z,9.54
2019-05-09T03:06:51.854Z,9.51
2019-05-09T03:07:51.897Z,9.44
2019-05-09T03:09:47.781Z,9.55
2019-05-09T03:10:44.922Z,9.39
2019-05-09T03:12:39.935Z,9.37
2019-05-09T03:13:39.428Z,9.40
2019-05-09T03:15:30.943Z,9.43
2019-05-09T03:16:31.001Z,9.34
2019-05-09T03:18:23.999Z,9.28
2019-05-09T03:19:24.035Z,9.32
2019-05-09T03:21:19.108Z,9.21
2019-05-09T03:22:18.770Z,9.28
2019-05-09T03:24:10.352Z,9.26
2019-05-09T03:25:10.112Z,9.23
2019-05-09T03:27:03.616Z,9.25
2019-05-09T03:28:03.664Z,9.22
2019-05-09T03:29:58.863Z,9.21
2019-05-09T03:30:59.263Z,9.23
2019-05-09T03:32:49.694Z,9.26
2019-05-09T03:33:50.235Z,9.16
2019-05-09T03:35:42.722Z,9.13
2019-05-09T03:36:42.758Z,9.08
2019-05-09T03:38:37.739Z,9.10
2019-05-09T03:39:37.740Z,9.10
2019-05-09T03:41:28.790Z,9.02
2019-05-09T03:42:40.056Z,9.00
2019-05-09T03:44:21.842Z,8.85
2019-05-09T03:45:21.880Z,8.89
2019-05-09T03:47:17.219Z,8.91
2019-05-09T03:48:15.142Z,8.85
2019-05-09T03:50:08.300Z,8.92
2019-05-09T03:51:08.199Z,8.88
2019-05-09T03:53:00.927Z,8.92
2019-05-09T03:54:01.007Z,8.84
2019-05-09T03:55:53.986Z,8.84
2019-05-09T03:56:54.019Z,8.82
2019-05-09T03:58:47.521Z,8.81
2019-05-09T03:59:48.154Z,8.78
2019-05-09T04:01:40.062Z,8.79
2019-05-09T04:02:40.090Z,8.78
2019-05-09T04:04:33.068Z,8.78
2019-05-09T04:05:33.121Z,8.73
2019-05-09T04:07:27.986Z,8.71
2019-05-09T04:08:28.098Z,8.71
2019-05-09T04:10:19.142Z,8.70
2019-05-09T04:11:19.197Z,8.69
2019-05-09T04:13:12.198Z,8.66
2019-05-09T04:14:12.229Z,8.67
2019-05-09T04:16:07.382Z,8.70
2019-05-09T04:17:05.263Z,8.73
2019-05-09T04:18:58.299Z,8.71
2019-05-09T04:19:58.299Z,8.69
2019-05-09T04:21:51.299Z,8.73
2019-05-09T04:22:51.333Z,8.70
2019-05-09T04:24:44.332Z,8.76
2019-05-09T04:25:44.389Z,8.67
2019-05-09T04:27:37.868Z,8.71
2019-05-09T04:28:39.855Z,8.67
2019-05-09T04:30:30.916Z,8.70
2019-05-09T04:31:30.953Z,8.58
2019-05-09T04:33:23.960Z,8.71
2019-05-09T04:34:23.988Z,8.64
2019-05-09T04:36:18.328Z,8.73
2019-05-09T04:37:18.039Z,8.70
2019-05-09T04:39:12.732Z,8.64
2019-05-09T04:40:10.057Z,8.70
2019-05-09T04:42:05.473Z,8.70
2019-05-09T04:43:11.968Z,8.69
2019-05-09T04:44:58.894Z,8.69
2019-05-09T04:45:57.904Z,8.74
2019-05-09T04:47:49.100Z,8.79
2019-05-09T04:48:49.157Z,8.82
2019-05-09T04:50:42.168Z,8.82
2019-05-09T04:51:42.203Z,8.84
2019-05-09T04:53:39.331Z,8.82
2019-05-09T04:54:35.235Z,8.85
2019-05-09T04:56:28.212Z,8.88
2019-05-09T04:57:28.273Z,8.91
2019-05-09T04:59:21.267Z,8.89
2019-05-09T05:00:21.307Z,8.91
2019-05-09T05:02:14.313Z,8.89
2019-05-09T05:03:14.343Z,9.00
2019-05-09T05:05:07.907Z,9.02
2019-05-09T05:06:07.733Z,9.02
2019-05-09T05:08:00.359Z,9.18
2019-05-09T05:09:00.415Z,9.26
2019-05-09T05:10:53.418Z,9.31
2019-05-09T05:11:53.455Z,9.19
2019-05-09T05:13:48.150Z,9.41
2019-05-09T05:14:47.579Z,9.39
2019-05-09T05:16:39.501Z,9.54
2019-05-09T05:17:39.534Z,9.56
2019-05-09T05:19:35.479Z,9.64
2019-05-09T05:20:32.582Z,9.62
2019-05-09T05:22:28.185Z,9.62
2019-05-09T05:23:27.518Z,9.72
2019-05-09T05:25:18.603Z,9.79
2019-05-09T05:26:18.662Z,9.74
2019-05-09T05:28:11.663Z,9.89
2019-05-09T05:29:11.704Z,9.92
2019-05-09T05:31:04.679Z,9.98
2019-05-09T05:32:04.763Z,9.97
2019-05-09T05:33:57.924Z,10.13
2019-05-09T05:34:57.771Z,10.15
2019-05-09T05:36:50.761Z,10.19
2019-05-09T05:37:50.819Z,10.23
2019-05-09T05:39:43.821Z,10.33
2019-05-09T05:40:46.418Z,10.38
2019-05-09T05:42:38.841Z,10.37
2019-05-09T05:43:41.497Z,10.41
2019-05-09T05:45:29.875Z,10.54
2019-05-09T05:46:29.938Z,10.57
2019-05-09T05:48:22.936Z,10.54
2019-05-09T05:49:22.967Z,10.63
2019-05-09T05:51:17.900Z,10.67
2019-05-09T05:52:18.361Z,10.72
2019-05-09T05:54:09.018Z,10.84
2019-05-09T05:55:09.053Z,10.89
2019-05-09T05:57:02.027Z,10.96
2019-05-09T05:58:02.130Z,10.94
2019-05-09T05:59:55.080Z,11.08
2019-05-09T06:00:55.123Z,11.22
2019-05-09T06:02:48.126Z,11.45
2019-05-09T06:03:48.283Z,11.62
2019-05-09T06:05:41.172Z,12.04
2019-05-09T06:06:41.211Z,12.22
2019-05-09T06:08:34.211Z,12.68
2019-05-09T06:09:34.242Z,13.08
2019-05-09T06:11:28.063Z,14.72
2019-05-09T06:12:27.754Z,15.46
2019-05-09T06:14:20.289Z,17.38
2019-05-09T06:15:20.326Z,18.05
2019-05-09T06:17:13.327Z,18.78
2019-05-09T06:18:13.367Z,18.90
2019-05-09T06:20:08.699Z,19.19
2019-05-09T06:21:08.680Z,19.77
2019-05-09T06:22:59.406Z,19.91
2019-05-09T06:23:59.456Z,19.77
2019-05-09T06:25:52.443Z,19.86
2019-05-09T06:26:52.509Z,19.70
2019-05-09T06:28:45.508Z,19.74
2019-05-09T06:29:47.732Z,19.31
2019-05-09T06:31:38.556Z,19.69
2019-05-09T06:32:38.633Z,20.25
2019-05-09T06:34:31.626Z,21.46
2019-05-09T06:35:31.679Z,21.43
2019-05-09T06:37:24.718Z,21.36
2019-05-09T06:38:24.759Z,21.39
2019-05-09T06:40:21.028Z,21.55
2019-05-09T06:41:17.833Z,21.57
2019-05-09T06:43:10.847Z,21.43
2019-05-09T06:44:16.370Z,21.79
2019-05-09T06:46:03.848Z,21.82
2019-05-09T06:47:03.914Z,22.65
2019-05-09T06:49:19.501Z,23.28
2019-05-09T06:49:57.499Z,23.65
2019-05-09T06:51:49.975Z,24.13
2019-05-09T06:52:50.039Z,22.99
2019-05-09T06:54:43.076Z,22.66
2019-05-09T06:55:43.107Z,22.33
2019-05-09T06:57:40.107Z,22.65
2019-05-09T06:58:38.127Z,22.36
2019-05-09T07:00:29.210Z,23.66
2019-05-09T07:01:29.255Z,24.51
2019-05-09T07:03:22.285Z,24.05
2019-05-09T07:04:22.327Z,24.40
2019-05-09T07:06:17.635Z,24.10
2019-05-09T07:07:17.515Z,24.55
2019-05-09T07:09:08.536Z,24.39
2019-05-09T07:10:08.464Z,23.81
2019-05-09T07:12:01.473Z,23.55
2019-05-09T07:13:01.540Z,23.27
2019-05-09T07:14:54.564Z,23.00
2019-05-09T07:15:54.611Z,21.79
2019-05-09T07:17:48.170Z,23.18
2019-05-09T07:18:48.467Z,23.15
2019-05-09T07:20:40.718Z,23.31
2019-05-09T07:21:40.760Z,23.28
2019-05-09T07:23:33.769Z,23.77
2019-05-09T07:24:33.841Z,22.45
2019-05-09T07:26:28.125Z,23.00
2019-05-09T07:27:28.570Z,23.61
2019-05-09T07:29:19.921Z,22.07
2019-05-09T07:30:19.989Z,21.42
2019-05-09T07:32:13.012Z,21.62
2019-05-09T07:33:13.057Z,21.50
2019-05-09T07:35:08.662Z,21.12
2019-05-09T07:36:08.367Z,21.21
2019-05-09T07:37:59.136Z,20.32
2019-05-09T07:38:59.205Z,20.62
2019-05-09T07:40:52.229Z,19.94
2019-05-09T07:41:52.274Z,19.77
2019-05-09T07:43:47.602Z,19.30
2019-05-09T07:44:49.637Z,19.24
2019-05-09T07:46:38.526Z,18.33
2019-05-09T07:47:38.866Z,17.98
2019-05-09T07:49:31.417Z,17.86
2019-05-09T07:50:31.482Z,17.89
2019-05-09T07:52:24.498Z,18.03
2019-05-09T07:53:24.543Z,18.07
2019-05-09T07:55:18.223Z,18.66
2019-05-09T07:56:18.659Z,19.73
2019-05-09T07:58:10.606Z,22.39
2019-05-09T07:59:10.661Z,21.66
2019-05-09T08:01:03.656Z,19.67
2019-05-09T08:02:03.722Z,19.41
2019-05-09T08:03:58.350Z,19.41
2019-05-09T08:04:57.943Z,20.52
2019-05-09T08:06:49.788Z,20.59
2019-05-09T08:07:49.849Z,20.37
2019-05-09T08:09:42.874Z,22.23
2019-05-09T08:10:42.915Z,22.30
2019-05-09T08:12:38.581Z,23.98
2019-05-09T08:13:35.987Z,23.40
2019-05-09T08:15:29.015Z,22.08
2019-05-09T08:16:29.066Z,22.36
2019-05-09T08:18:22.097Z,23.36
2019-05-09T08:19:22.151Z,23.80
2019-05-09T08:21:15.140Z,24.17
2019-05-09T08:22:15.203Z,24.42
2019-05-09T08:24:08.359Z,24.63
2019-05-09T08:25:08.485Z,24.40
2019-05-09T08:27:01.786Z,22.45
2019-05-09T08:28:01.858Z,22.99
2019-05-09T08:29:54.883Z,23.23
2019-05-09T08:30:54.933Z,21.85
2019-05-09T08:32:48.421Z,22.14
2019-05-09T08:33:48.622Z,23.27
2019-05-09T08:35:41.046Z,23.61
2019-05-09T08:36:41.100Z,23.28
2019-05-09T08:38:34.124Z,23.59
2019-05-09T08:39:34.202Z,23.56
2019-05-09T08:41:28.967Z,24.65
2019-05-09T08:42:29.226Z,23.66
2019-05-09T08:44:20.291Z,22.45
2019-05-09T08:45:27.604Z,21.45
2019-05-09T08:47:13.353Z,22.57
2019-05-09T08:48:13.425Z,23.23
2019-05-09T08:50:07.980Z,23.46
2019-05-09T08:51:08.828Z,22.15
2019-05-09T08:52:59.531Z,23.40
2019-05-09T08:53:59.584Z,24.60
2019-05-09T08:55:52.616Z,24.36
2019-05-09T08:56:52.660Z,23.09
2019-05-09T08:58:48.256Z,22.44
2019-05-09T08:59:48.133Z,21.57
2019-05-09T09:02:04.459Z,21.85
2019-05-09T09:02:38.820Z,20.97
2019-05-09T09:04:31.847Z,19.94
2019-05-09T09:05:31.894Z,19.77
2019-05-09T09:07:24.899Z,21.77
2019-05-09T09:08:24.966Z,23.36
2019-05-09T09:10:18.832Z,24.88
2019-05-09T09:11:18.705Z,24.54
2019-05-09T09:13:11.057Z,23.66
2019-05-09T09:14:11.112Z,23.58
2019-05-09T09:16:15.073Z,24.03
2019-05-09T09:17:04.188Z,24.20
2019-05-09T09:18:58.374Z,22.39
2019-05-09T09:19:58.247Z,21.80
2019-05-09T09:21:50.273Z,21.22
2019-05-09T09:22:50.346Z,21.00
2019-05-09T09:24:43.383Z,20.87
2019-05-09T09:25:43.421Z,20.14
2019-05-09T09:27:38.206Z,19.19
2019-05-09T09:28:38.154Z,19.08
2019-05-09T09:30:31.041Z,19.22
2019-05-09T09:31:31.088Z,19.27
2019-05-09T09:33:24.085Z,19.84
2019-05-09T09:34:26.961Z,19.79
2019-05-09T09:36:17.889Z,19.30
2019-05-09T09:37:18.477Z,19.04
2019-05-09T09:39:10.219Z,18.84
2019-05-09T09:40:10.286Z,18.90
2019-05-09T09:42:03.317Z,18.84
2019-05-09T09:43:03.353Z,18.56
2019-05-09T09:44:58.534Z,17.94
2019-05-09T09:46:10.135Z,17.78
2019-05-09T09:47:49.454Z,18.07
2019-05-09T09:48:49.477Z,18.41
2019-05-09T09:50:42.494Z,18.18
2019-05-09T09:51:42.536Z,18.04
2019-05-09T09:53:38.230Z,18.18
2019-05-09T09:54:35.600Z,18.18
2019-05-09T09:56:28.613Z,18.04
2019-05-09T09:57:29.008Z,18.11
2019-05-09T09:59:21.647Z,18.19
2019-05-09T10:00:21.712Z,18.35
2019-05-09T10:02:14.724Z,18.38
2019-05-09T10:03:14.774Z,18.44
2019-05-09T10:05:07.934Z,18.49
2019-05-09T10:06:07.822Z,18.44
2019-05-09T10:08:00.814Z,18.93
2019-05-09T10:09:00.883Z,18.99
2019-05-09T10:10:53.885Z,18.93
2019-05-09T10:11:57.057Z,18.63
2019-05-09T10:13:48.064Z,18.19
2019-05-09T10:14:46.992Z,17.86
2019-05-09T10:16:39.998Z,17.86
2019-05-09T10:17:40.046Z,18.07
2019-05-09T10:19:33.036Z,18.28
2019-05-09T10:20:33.111Z,18.68
2019-05-09T10:22:26.841Z,18.86
2019-05-09T10:23:26.155Z,18.88
2019-05-09T10:25:19.160Z,18.90
2019-05-09T10:26:19.205Z,18.86
2019-05-09T10:28:12.234Z,18.74
2019-05-09T10:29:12.272Z,18.81
2019-05-09T10:31:05.287Z,18.73
2019-05-09T10:32:05.344Z,18.96
2019-05-09T10:33:58.363Z,18.98
2019-05-09T10:34:58.402Z,18.99
2019-05-09T10:36:51.394Z,19.19
2019-05-09T10:37:51.461Z,19.18
2019-05-09T10:39:44.470Z,19.09
2019-05-09T10:40:44.541Z,19.19
2019-05-09T10:42:38.012Z,19.08
2019-05-09T10:43:39.063Z,18.59
2019-05-09T10:45:30.583Z,18.81
2019-05-09T10:46:48.467Z,18.73
2019-05-09T10:48:24.119Z,18.75
2019-05-09T10:49:23.669Z,18.66
2019-05-09T10:51:18.582Z,18.81
2019-05-09T10:52:18.272Z,18.81
2019-05-09T10:54:09.740Z,18.66
2019-05-09T10:55:09.784Z,18.58
2019-05-09T10:57:02.805Z,18.45
2019-05-09T10:58:02.852Z,18.52
2019-05-09T10:59:57.987Z,18.73
2019-05-09T11:00:56.335Z,18.86
2019-05-09T11:02:48.899Z,18.81
2019-05-09T11:03:48.948Z,18.83
2019-05-09T11:05:41.945Z,18.84
2019-05-09T11:06:42.010Z,18.80
2019-05-09T11:08:35.039Z,19.00
2019-05-09T11:09:35.061Z,19.08
2019-05-09T11:11:28.629Z,18.74
2019-05-09T11:12:28.103Z,18.62
2019-05-09T11:14:32.686Z,18.63
2019-05-09T11:15:21.164Z,18.84
2019-05-09T11:17:18.468Z,18.55
2019-05-09T11:18:14.227Z,18.55
2019-05-09T11:20:08.663Z,18.53
2019-05-09T11:21:08.431Z,18.88
2019-05-09T11:23:00.303Z,19.64
2019-05-09T11:24:00.360Z,19.91
2019-05-09T11:25:53.351Z,20.28
2019-05-09T11:26:53.391Z,20.19
2019-05-09T11:28:46.427Z,19.92
2019-05-09T11:29:49.742Z,19.63
2019-05-09T11:31:39.488Z,19.76
2019-05-09T11:32:39.537Z,19.69
2019-05-09T11:34:32.515Z,19.63
2019-05-09T11:35:32.585Z,19.67
2019-05-09T11:37:25.594Z,19.56
2019-05-09T11:38:33.133Z,19.56
2019-05-09T11:40:18.656Z,19.45
2019-05-09T11:41:19.468Z,19.41
2019-05-09T11:43:11.686Z,19.36
2019-05-09T11:44:11.813Z,19.04
2019-05-09T11:46:04.811Z,18.80
2019-05-09T11:47:04.804Z,18.63
2019-05-09T11:48:58.461Z,18.77
2019-05-09T11:49:58.128Z,18.95
2019-05-09T11:51:50.878Z,19.26
2019-05-09T11:52:50.920Z,19.39
2019-05-09T11:54:43.933Z,18.98
2019-05-09T11:55:43.984Z,19.09
2019-05-09T11:57:38.420Z,19.07
2019-05-09T11:58:37.949Z,19.22
2019-05-09T12:00:30.059Z,19.45
2019-05-09T12:01:30.095Z,19.51
2019-05-09T12:03:23.111Z,19.49
2019-05-09T12:04:23.149Z,19.44
2019-05-09T12:06:16.552Z,19.47
2019-05-09T12:07:17.922Z,19.19
2019-05-09T12:09:09.250Z,19.02
2019-05-09T12:10:09.301Z,19.27
2019-05-09T12:12:02.301Z,19.66
2019-05-09T12:13:02.360Z,19.73
2019-05-09T12:14:55.370Z,19.55
2019-05-09T12:15:58.278Z,19.54
2019-05-09T12:17:57.381Z,19.56
2019-05-09T12:18:48.973Z,19.59
2019-05-09T12:20:41.474Z,19.47
2019-05-09T12:21:47.590Z,19.44
2019-05-09T12:23:34.507Z,19.39
2019-05-09T12:24:34.568Z,19.41
2019-05-09T12:26:29.101Z,19.58
2019-05-09T12:27:28.156Z,19.69
2019-05-09T12:29:20.661Z,20.00
2019-05-09T12:30:20.682Z,20.11
2019-05-09T12:32:13.675Z,19.99
2019-05-09T12:33:13.740Z,19.84
2019-05-09T12:35:08.883Z,20.02
2019-05-09T12:36:09.218Z,20.13
2019-05-09T12:37:59.794Z,20.22
2019-05-09T12:38:59.853Z,20.37
2019-05-09T12:40:52.862Z,20.51
2019-05-09T12:41:52.907Z,20.69
2019-05-09T12:43:45.920Z,20.55
2019-05-09T12:44:45.964Z,20.55
2019-05-09T12:46:39.545Z,20.77
2019-05-09T12:47:39.949Z,20.58
2019-05-09T12:49:32.042Z,20.36
2019-05-09T12:50:32.082Z,20.48
2019-05-09T12:52:25.090Z,20.11
2019-05-09T12:53:27.372Z,20.11
2019-05-09T12:55:18.129Z,19.89
2019-05-09T12:56:18.853Z,19.74
2019-05-09T12:58:11.206Z,19.59
2019-05-09T12:59:11.253Z,19.40
2019-05-09T13:01:04.248Z,19.41
2019-05-09T13:02:04.322Z,19.54
2019-05-09T13:03:58.331Z,19.54
2019-05-09T13:04:57.371Z,19.54
2019-05-09T13:06:50.372Z,19.55
2019-05-09T13:07:50.419Z,19.54
2019-05-09T13:09:43.418Z,19.47
2019-05-09T13:10:43.473Z,19.39
2019-05-09T13:12:38.839Z,19.37
2019-05-09T13:13:40.120Z,19.36
2019-05-09T13:15:31.015Z,19.39
2019-05-09T13:16:44.123Z,19.18
2019-05-09T13:18:25.405Z,19.11
2019-05-09T13:19:22.640Z,19.00
2019-05-09T13:21:15.655Z,18.96
2019-05-09T13:22:18.296Z,19.02
2019-05-09T13:24:08.770Z,19.14
2019-05-09T13:25:09.585Z,19.08
2019-05-09T13:27:02.266Z,19.04
2019-05-09T13:28:02.335Z,19.11
2019-05-09T13:29:55.344Z,19.29
2019-05-09T13:30:55.377Z,19.24
2019-05-09T13:32:48.612Z,19.26
2019-05-09T13:33:48.849Z,19.44
2019-05-09T13:35:41.460Z,19.54
2019-05-09T13:36:41.499Z,19.64
2019-05-09T13:38:34.486Z,19.81
2019-05-09T13:39:34.553Z,19.71
2019-05-09T13:41:27.572Z,19.64
2019-05-09T13:42:28.405Z,19.59
2019-05-09T13:44:20.599Z,19.70
2019-05-09T13:45:20.662Z,19.73
2019-05-09T13:47:13.677Z,19.79
2019-05-09T13:48:27.086Z,19.99
2019-05-09T13:50:08.804Z,19.99
2019-05-09T13:51:07.739Z,19.95
2019-05-09T13:52:59.783Z,19.73
2019-05-09T13:53:59.823Z,19.59
2019-05-09T13:55:52.814Z,19.56
2019-05-09T13:56:57.659Z,19.37
2019-05-09T13:58:45.886Z,19.44
2019-05-09T13:59:48.399Z,19.47
2019-05-09T14:01:38.951Z,19.36
2019-05-09T14:02:39.006Z,19.37
2019-05-09T14:04:32.006Z,19.24
2019-05-09T14:05:32.041Z,19.24
2019-05-09T14:07:27.744Z,19.27
2019-05-09T14:08:25.099Z,19.08
2019-05-09T14:10:18.135Z,18.89
2019-05-09T14:11:19.367Z,18.75
2019-05-09T14:13:14.003Z,18.84
2019-05-09T14:14:12.241Z,18.88
2019-05-09T14:16:18.799Z,18.73
2019-05-09T14:17:04.285Z,18.66
2019-05-09T14:19:04.037Z,18.52
2019-05-09T14:19:57.395Z,18.59
2019-05-09T14:21:50.355Z,18.73
2019-05-09T14:22:50.404Z,18.74
2019-05-09T14:24:43.382Z,18.74
2019-05-09T14:25:48.400Z,18.74
2019-05-09T14:27:37.576Z,18.68
2019-05-09T14:28:36.999Z,18.73
2019-05-09T14:30:30.022Z,18.55
2019-05-09T14:31:32.491Z,18.41
2019-05-09T14:33:23.053Z,18.34
2019-05-09T14:34:23.118Z,18.40
2019-05-09T14:36:16.129Z,18.35
2019-05-09T14:37:18.073Z,18.31
2019-05-09T14:39:09.453Z,18.29
2019-05-09T14:40:10.329Z,18.26
2019-05-09T14:42:10.754Z,18.33
2019-05-09T14:43:02.311Z,18.35
2019-05-09T14:44:55.285Z,18.29
2019-05-09T14:45:57.361Z,18.45
2019-05-09T14:47:48.357Z,18.47
2019-05-09T14:48:48.420Z,18.44
2019-05-09T14:50:41.407Z,18.55
2019-05-09T14:51:41.459Z,18.60
2019-05-09T14:53:34.468Z,18.55
2019-05-09T14:54:34.540Z,18.52
2019-05-09T14:56:28.139Z,18.53
2019-05-09T14:57:28.615Z,18.58
2019-05-09T14:59:20.587Z,18.68
2019-05-09T15:00:20.647Z,18.60
2019-05-09T15:02:13.608Z,18.58
2019-05-09T15:03:13.675Z,18.62
2019-05-09T15:05:09.341Z,18.78
2019-05-09T15:06:07.540Z,18.88
2019-05-09T15:07:59.751Z,18.96
2019-05-09T15:08:59.777Z,18.92
2019-05-09T15:10:52.762Z,19.00
2019-05-09T15:11:52.825Z,18.98
2019-05-09T15:13:47.702Z,18.96
2019-05-09T15:14:47.948Z,19.00
2019-05-09T15:16:39.455Z,19.00
2019-05-09T15:17:38.932Z,19.00
2019-05-09T15:19:31.937Z,18.86
2019-05-09T15:20:31.979Z,18.78
2019-05-09T15:22:24.990Z,18.88
2019-05-09T15:23:25.035Z,18.83
2019-05-09T15:25:19.414Z,18.80
2019-05-09T15:26:18.085Z,18.68
2019-05-09T15:28:11.089Z,18.70
2019-05-09T15:29:11.151Z,18.81
2019-05-09T15:31:04.159Z,18.74
2019-05-09T15:32:06.835Z,18.81
2019-05-09T15:33:57.269Z,18.77
2019-05-09T15:34:57.699Z,18.68
2019-05-09T15:36:50.300Z,18.84
2019-05-09T15:37:50.354Z,18.93
2019-05-09T15:39:43.381Z,18.96
2019-05-09T15:40:43.419Z,19.04
2019-05-09T15:42:38.993Z,18.96
2019-05-09T15:43:38.140Z,19.02
2019-05-09T15:45:29.475Z,19.09
2019-05-09T15:46:29.521Z,19.11
2019-05-09T15:48:22.598Z,19.31
2019-05-09T15:49:22.575Z,19.26
2019-05-09T15:51:17.868Z,19.24
2019-05-09T15:52:17.982Z,19.14
2019-05-09T15:54:08.613Z,19.02
2019-05-09T15:55:09.557Z,19.07
2019-05-09T15:57:01.858Z,18.96
2019-05-09T15:58:01.728Z,18.99
2019-05-09T15:59:54.720Z,19.08
2019-05-09T16:00:54.890Z,19.12
2019-05-09T16:02:48.542Z,19.18
2019-05-09T16:03:48.643Z,19.24
2019-05-09T16:05:40.820Z,19.27
2019-05-09T16:06:40.890Z,19.24
2019-05-09T16:08:33.912Z,19.24
2019-05-09T16:09:33.944Z,19.19
2019-05-09T16:11:28.607Z,19.12
2019-05-09T16:12:27.742Z,19.15
2019-05-09T16:14:20.001Z,19.14
2019-05-09T16:15:20.054Z,19.14
2019-05-09T16:17:13.075Z,19.11
2019-05-09T16:18:13.121Z,19.04
2019-05-09T16:20:08.370Z,18.80
2019-05-09T16:21:08.403Z,18.58
2019-05-09T16:22:59.193Z,18.44
2019-05-09T16:23:59.454Z,18.34
2019-05-09T16:25:52.243Z,18.25
2019-05-09T16:26:52.286Z,18.26
2019-05-09T16:28:45.301Z,18.04
2019-05-09T16:29:45.353Z,18.15
2019-05-09T16:31:38.951Z,18.01
2019-05-09T16:32:38.411Z,18.00
2019-05-09T16:34:31.413Z,18.01
2019-05-09T16:35:31.471Z,18.00
2019-05-09T16:37:24.484Z,17.95
2019-05-09T16:38:38.856Z,17.86
2019-05-09T16:40:18.376Z,17.86
2019-05-09T16:41:18.654Z,17.86
2019-05-09T16:43:11.406Z,17.85
2019-05-09T16:44:11.470Z,17.90
2019-05-09T16:46:04.475Z,17.78
2019-05-09T16:47:04.520Z,17.86
2019-05-09T16:48:58.117Z,17.70
2019-05-09T16:49:58.077Z,17.57
2019-05-09T16:51:50.579Z,17.49
2019-05-09T16:52:50.638Z,17.63
2019-05-09T16:54:43.658Z,17.57
2019-05-09T16:55:43.680Z,17.59
2019-05-09T16:57:37.708Z,17.52
2019-05-09T16:58:37.919Z,17.59
2019-05-09T17:00:29.724Z,17.64
2019-05-09T17:01:29.787Z,17.70
2019-05-09T17:03:22.821Z,17.82
2019-05-09T17:04:22.851Z,17.74
2019-05-09T17:06:18.272Z,17.83
2019-05-09T17:07:17.943Z,17.72
2019-05-09T17:09:09.503Z,17.68
2019-05-09T17:10:08.948Z,17.64
2019-05-09T17:12:01.942Z,17.68
2019-05-09T17:13:01.999Z,17.68
2019-05-09T17:14:55.039Z,17.64
2019-05-09T17:15:55.110Z,17.72
2019-05-09T17:17:48.049Z,17.78
2019-05-09T17:18:48.685Z,17.82
2019-05-09T17:20:41.149Z,17.80
2019-05-09T17:21:41.160Z,17.80
2019-05-09T17:23:34.175Z,17.86
2019-05-09T17:24:34.221Z,17.82
2019-05-09T17:26:28.363Z,17.80
2019-05-09T17:27:28.117Z,17.78
2019-05-09T17:29:20.327Z,17.80
2019-05-09T17:30:20.337Z,17.76
2019-05-09T17:32:13.335Z,17.74
2019-05-09T17:33:13.365Z,17.71
2019-05-09T17:35:06.380Z,17.74
2019-05-09T17:36:06.438Z,17.74
2019-05-09T17:37:59.510Z,17.74
2019-05-09T17:38:59.493Z,17.70
2019-05-09T17:40:52.514Z,17.68
2019-05-09T17:41:52.577Z,17.65
2019-05-09T17:43:47.463Z,17.63
2019-05-09T17:44:45.623Z,17.70
2019-05-09T17:46:38.981Z,17.80
2019-05-09T17:47:38.681Z,17.76
2019-05-09T17:49:31.703Z,17.85
2019-05-09T17:50:31.740Z,17.78
2019-05-09T17:52:24.723Z,17.67
2019-05-09T17:53:24.791Z,17.51
2019-05-09T17:55:18.333Z,17.51
2019-05-09T17:56:17.863Z,17.48
2019-05-09T17:58:25.621Z,17.44
2019-05-09T17:59:10.936Z,17.36
2019-05-09T18:01:03.947Z,17.34
2019-05-09T18:02:03.977Z,17.27
2019-05-09T18:03:59.081Z,17.23
2019-05-09T18:04:58.269Z,17.24
2019-05-09T18:06:50.055Z,17.08
2019-05-09T18:07:50.099Z,17.01
2019-05-09T18:09:43.133Z,16.99
2019-05-09T18:10:43.165Z,16.91
2019-05-09T18:12:38.417Z,16.75
2019-05-09T18:13:38.396Z,16.72
2019-05-09T18:15:29.226Z,16.64
2019-05-09T18:16:29.267Z,16.54
2019-05-09T18:18:22.269Z,16.54
2019-05-09T18:19:22.344Z,16.46
2019-05-09T18:21:17.657Z,16.46
2019-05-09T18:22:15.392Z,16.43
2019-05-09T18:24:08.937Z,16.42
2019-05-09T18:25:08.462Z,16.42
2019-05-09T18:27:01.476Z,16.24
2019-05-09T18:28:01.502Z,16.23
2019-05-09T18:29:54.505Z,16.31
2019-05-09T18:30:54.565Z,16.38
2019-05-09T18:32:47.735Z,16.43
2019-05-09T18:33:47.863Z,16.33
2019-05-09T18:35:40.605Z,16.39
2019-05-09T18:36:40.667Z,16.24
2019-05-09T18:38:33.693Z,16.33
2019-05-09T18:39:33.722Z,16.33